Time;durP1;ratioP1;P1;durP2;ratioP2;P2;SDS_P1;SDS_P2;PMS_P1;PMS_P2;Temp;Humidity;BMP_temperature;BMP_pressure;BME280_temperature;BME280_humidity;BME280_pressure;Samples;Min_cycle;Max_cycle;Signal;HPM_P1;HPM_P2
2021/12/29 00:01:35;;;;;;;5.43;1.20;;;;;;;7.96;91.35;94144.28;4412947;32;20206;-63
2021/12/29 00:04:01;;;;;;;5.43;1.37;;;;;;;7.89;92.09;94143.97;4414245;32;20203;-63
2021/12/29 00:06:26;;;;;;;6.33;1.63;;;;;;;8.00;91.40;94153.16;4415114;32;20176;-63
2021/12/29 00:08:51;;;;;;;5.87;1.13;;;;;;;7.95;91.56;94148.00;4408220;32;20187;-64
2021/12/29 00:11:17;;;;;;;2.43;1.00;;;;;;;7.90;91.66;94153.41;4418203;32;20226;-63
2021/12/29 00:13:42;;;;;;;3.97;1.00;;;;;;;7.95;91.32;94150.66;4411804;32;20218;-63
2021/12/29 00:16:08;;;;;;;1.83;1.00;;;;;;;8.00;90.88;94163.72;4411185;32;20189;-63
2021/12/29 00:18:34;;;;;;;4.13;1.13;;;;;;;8.05;91.20;94160.16;4409195;32;20202;-63
2021/12/29 00:21:04;;;;;;;2.10;1.07;;;;;;;8.10;90.61;94158.19;4409297;32;20183;-66
2021/12/29 00:23:30;;;;;;;7.93;1.30;;;;;;;8.12;90.08;94158.62;4410726;32;20325;-63
2021/12/29 00:25:55;;;;;;;3.27;1.00;;;;;;;8.06;90.67;94162.50;4416328;32;20283;-63
2021/12/29 00:28:21;;;;;;;2.23;1.00;;;;;;;8.07;90.80;94158.78;4412070;32;20188;-64
2021/12/29 00:30:46;;;;;;;5.00;1.10;;;;;;;8.07;90.98;94164.06;4422576;32;20202;-64
2021/12/29 00:33:12;;;;;;;3.80;1.37;;;;;;;8.09;90.73;94161.91;4410788;32;20172;-64
2021/12/29 00:35:38;;;;;;;5.13;1.20;;;;;;;8.07;90.57;94169.34;4413164;32;20188;-64
2021/12/29 00:38:09;;;;;;;4.37;1.20;;;;;;;8.00;91.10;94160.31;4411614;32;20233;-64
2021/12/29 00:40:35;;;;;;;2.87;1.10;;;;;;;7.96;91.64;94152.22;4406443;32;20299;-64
2021/12/29 00:43:01;;;;;;;6.20;1.30;;;;;;;8.16;90.63;94172.00;4419166;32;20333;-63
2021/12/29 00:45:31;;;;;;;4.80;1.67;;;;;;;8.09;90.37;94161.91;4410363;32;20283;-63
2021/12/29 00:47:56;;;;;;;3.27;1.10;;;;;;;8.08;90.15;94160.34;4411518;32;20259;-64
2021/12/29 00:50:21;;;;;;;5.40;1.00;;;;;;;8.12;89.73;94155.97;4408146;32;20279;-64
2021/12/29 00:52:47;;;;;;;2.80;1.13;;;;;;;8.08;90.17;94156.91;4418278;32;20252;-64
2021/12/29 00:55:16;;;;;;;5.03;1.10;;;;;;;8.08;89.96;94170.91;4420403;32;20176;-64
2021/12/29 00:57:42;;;;;;;4.83;0.90;;;;;;;8.15;89.88;94165.16;4415283;32;20239;-63
2021/12/29 01:00:16;;;;;;;3.00;0.83;;;;;;;8.14;89.10;94164.38;4406094;32;20279;-63
2021/12/29 01:02:43;;;;;;;4.07;1.40;;;;;;;8.23;88.31;94173.13;4412152;32;20199;-64
2021/12/29 01:05:09;;;;;;;4.40;1.10;;;;;;;8.20;88.56;94176.38;4419723;32;20306;-64
2021/12/29 01:07:35;;;;;;;3.37;1.23;;;;;;;8.18;88.55;94165.34;4414375;32;20323;-63
2021/12/29 01:10:03;;;;;;;3.00;1.10;;;;;;;8.17;88.68;94173.56;4405908;32;20338;-64
2021/12/29 01:12:29;;;;;;;5.97;1.30;;;;;;;8.27;88.16;94176.72;4406737;32;20279;-64
2021/12/29 01:14:55;;;;;;;3.80;1.27;;;;;;;8.23;87.82;94191.63;4420301;32;20365;-64
2021/12/29 01:17:23;;;;;;;5.10;1.30;;;;;;;8.11;88.30;94194.03;4414835;32;20210;-64
2021/12/29 01:19:50;;;;;;;3.47;1.10;;;;;;;8.21;87.71;94193.00;4411851;32;20280;-64
2021/12/29 01:22:16;;;;;;;5.23;1.00;;;;;;;8.20;88.13;94199.38;4421160;32;20298;-64
2021/12/29 01:24:43;;;;;;;6.03;1.10;;;;;;;8.23;88.41;94204.81;4411751;32;20288;-64
2021/12/29 01:27:09;;;;;;;4.87;1.10;;;;;;;8.30;87.55;94203.63;4406198;32;20279;-64
2021/12/29 01:29:34;;;;;;;3.47;1.10;;;;;;;8.27;87.83;94210.28;4420397;32;20362;-63
2021/12/29 01:32:00;;;;;;;4.50;1.17;;;;;;;8.25;86.93;94229.06;4420590;32;20223;-64
2021/12/29 01:34:27;;;;;;;6.53;1.53;;;;;;;8.28;86.59;94233.75;4409745;32;20227;-64
2021/12/29 01:36:53;;;;;;;4.57;1.30;;;;;;;8.28;86.57;94217.91;4420703;32;20247;-64
2021/12/29 01:39:19;;;;;;;5.33;1.30;;;;;;;8.34;86.57;94221.19;4415087;32;20302;-63
2021/12/29 01:41:46;;;;;;;5.30;1.17;;;;;;;8.28;87.10;94217.91;4411314;32;20184;-63
2021/12/29 01:44:14;;;;;;;6.00;1.10;;;;;;;8.30;86.29;94232.69;4406670;32;20284;-63
2021/12/29 01:46:41;;;;;;;5.73;1.40;;;;;;;8.28;86.22;94225.06;4417349;32;20287;-63
2021/12/29 01:49:07;;;;;;;5.53;0.97;;;;;;;8.29;86.13;94231.91;4413218;32;20276;-63
2021/12/29 01:51:33;;;;;;;3.30;1.10;;;;;;;8.23;86.63;94233.88;4413089;32;20310;-63
2021/12/29 01:54:23;;;;;;;5.00;1.00;;;;;;;8.36;84.92;94247.31;4405239;32;20275;-63
2021/12/29 01:56:47;;;;;;;3.20;0.90;;;;;;;8.34;85.52;94230.97;4416807;32;20206;-64
2021/12/29 01:59:14;;;;;;;3.50;1.17;;;;;;;8.36;85.29;94237.53;4403359;32;20283;-63
2021/12/29 02:01:40;;;;;;;3.47;1.20;;;;;;;8.41;84.45;94236.63;4410001;32;20270;-64
2021/12/29 02:04:05;;;;;;;4.07;1.03;;;;;;;8.46;84.00;94228.56;4407979;32;20291;-64
2021/12/29 02:06:30;;;;;;;4.37;0.90;;;;;;;8.37;84.55;94246.22;4419083;32;20222;-64
2021/12/29 02:08:57;;;;;;;5.20;1.00;;;;;;;8.44;84.18;94222.78;4418882;32;20263;-63
2021/12/29 02:11:28;;;;;;;3.50;1.37;;;;;;;8.46;84.45;94228.56;4413729;32;20223;-63
2021/12/29 02:13:58;;;;;;;4.60;1.07;;;;;;;8.48;84.32;94227.16;4406063;32;20276;-63
2021/12/29 02:16:24;;;;;;;8.13;1.13;;;;;;;8.44;84.14;94236.78;4410359;32;20340;-63
2021/12/29 02:18:54;;;;;;;7.00;1.17;;;;;;;8.48;84.06;94242.25;4419094;32;20278;-63
2021/12/29 02:21:22;;;;;;;4.80;1.10;;;;;;;8.39;84.92;94246.72;4408698;32;20241;-63
2021/12/29 02:24:05;;;;;;;3.60;1.07;;;;;;;8.37;85.64;94252.28;4427395;32;20290;-63
2021/12/29 02:26:32;;;;;;;5.53;1.10;;;;;;;8.43;85.10;94255.59;4405108;32;20293;-63
2021/12/29 02:29:01;;;;;;;5.20;1.10;;;;;;;8.45;84.80;94256.06;4406526;32;20323;-63
2021/12/29 02:31:27;;;;;;;7.57;1.23;;;;;;;8.36;84.95;94263.16;4418525;32;20327;-63
2021/12/29 02:33:52;;;;;;;5.37;1.57;;;;;;;8.54;84.52;94262.16;4407709;32;20329;-63
2021/12/29 02:36:19;;;;;;;3.20;1.07;;;;;;;8.46;84.40;94271.63;4411195;32;20287;-63
2021/12/29 02:38:50;;;;;;;3.10;1.07;;;;;;;8.41;84.46;94284.19;4406690;32;20198;-63
2021/12/29 02:41:15;;;;;;;4.13;1.27;;;;;;;8.49;84.40;94273.66;4410945;32;20275;-63
2021/12/29 02:43:41;;;;;;;7.10;1.23;;;;;;;8.43;84.87;94276.72;4419582;32;20371;-63
2021/12/29 02:46:11;;;;;;;4.67;1.17;;;;;;;8.41;84.74;94284.97;4416240;32;20188;-63
2021/12/29 02:48:46;;;;;;;4.53;1.17;;;;;;;8.42;84.93;94291.03;4413596;32;20187;-63
2021/12/29 02:51:11;;;;;;;4.10;1.07;;;;;;;8.39;85.55;94296.91;4404776;32;20297;-63
2021/12/29 02:53:37;;;;;;;3.27;1.27;;;;;;;8.39;85.88;94304.84;4404616;32;20271;-63
2021/12/29 02:56:05;;;;;;;3.63;1.10;;;;;;;8.44;86.29;94307.37;4406593;32;20235;-63
2021/12/29 02:58:34;;;;;;;3.20;1.00;;;;;;;8.35;87.06;94317.09;4418395;32;20215;-63
2021/12/29 03:01:04;;;;;;;6.93;1.43;;;;;;;8.36;87.19;94314.16;4407189;32;20290;-63
2021/12/29 03:03:30;;;;;;;3.77;1.20;;;;;;;8.37;87.92;94330.78;4404809;32;20267;-63
2021/12/29 03:05:56;;;;;;;3.83;1.03;;;;;;;8.33;87.93;94324.53;4413246;32;20356;-63
2021/12/29 03:08:23;;;;;;;3.33;1.00;;;;;;;8.33;88.10;94325.31;4408813;32;20193;-64
2021/12/29 03:10:52;;;;;;;5.60;1.37;;;;;;;8.24;88.73;94330.56;4409383;32;20259;-63
2021/12/29 03:13:19;;;;;;;3.40;0.90;;;;;;;8.20;89.85;94337.50;4405209;32;20292;-63
2021/12/29 03:15:44;;;;;;;4.63;1.10;;;;;;;8.19;90.73;94346.53;4415330;32;20371;-63
2021/12/29 03:18:09;;;;;;;2.30;1.10;;;;;;;8.13;91.38;94339.78;4413502;32;20369;-63
2021/12/29 03:20:35;;;;;;;6.17;1.50;;;;;;;8.15;91.57;94358.75;4418982;32;20219;-64
2021/12/29 03:23:00;;;;;;;5.77;1.10;;;;;;;8.16;91.71;94360.31;4410790;32;20191;-63
2021/12/29 03:25:26;;;;;;;4.43;1.03;;;;;;;8.18;91.45;94358.16;4409751;32;20189;-64
2021/12/29 03:27:58;;;;;;;4.50;1.10;;;;;;;8.13;92.25;94355.66;4403823;32;20209;-63
2021/12/29 03:30:23;;;;;;;3.53;1.10;;;;;;;7.98;93.60;94360.50;4410680;32;20230;-64
2021/12/29 03:32:52;;;;;;;4.17;1.13;;;;;;;8.14;92.62;94359.84;4420638;32;20362;-63
2021/12/29 03:35:18;;;;;;;3.53;1.10;;;;;;;8.05;92.42;94368.81;4427208;32;20194;-64
2021/12/29 03:37:44;;;;;;;2.27;0.77;;;;;;;8.13;91.61;94366.22;4404142;32;20280;-64
2021/12/29 03:40:10;;;;;;;3.30;0.97;;;;;;;8.10;91.58;94374.75;4406586;32;20412;-63
2021/12/29 03:42:36;;;;;;;4.67;1.10;;;;;;;8.18;90.61;94381.16;4407552;32;20224;-64
2021/12/29 03:45:02;;;;;;;4.70;1.10;;;;;;;8.11;91.02;94375.50;4404920;32;20378;-64
2021/12/29 03:47:27;;;;;;;3.27;0.60;;;;;;;8.21;90.09;94380.56;4412994;32;20194;-64
2021/12/29 03:49:53;;;;;;;2.70;0.80;;;;;;;8.20;89.88;94386.94;4410766;32;20324;-64
2021/12/29 03:52:18;;;;;;;2.37;0.70;;;;;;;8.27;89.55;94390.72;4415178;32;20184;-63
2021/12/29 03:54:43;;;;;;;2.23;0.73;;;;;;;8.28;88.75;94388.84;4410860;32;20245;-63
2021/12/29 03:57:09;;;;;;;1.47;0.70;;;;;;;8.22;89.13;94395.34;4403572;32;20211;-63
2021/12/29 03:59:34;;;;;;;2.47;0.77;;;;;;;8.23;89.50;94395.03;4403929;32;20195;-63
2021/12/29 04:02:00;;;;;;;2.67;1.10;;;;;;;8.31;88.93;94398.81;4418047;32;20198;-63
2021/12/29 04:04:26;;;;;;;1.60;0.70;;;;;;;8.35;88.78;94402.44;4418984;32;20245;-63
2021/12/29 04:06:51;;;;;;;3.47;0.60;;;;;;;8.37;88.59;94405.56;4410542;32;20283;-64
2021/12/29 04:09:16;;;;;;;3.13;1.10;;;;;;;8.21;89.50;94401.69;4406412;32;20203;-63
2021/12/29 04:11:42;;;;;;;2.23;1.17;;;;;;;8.26;89.64;94399.72;4407359;32;20194;-63
2021/12/29 04:14:07;;;;;;;1.43;0.53;;;;;;;8.34;89.05;94405.38;4407977;32;20223;-63
2021/12/29 04:16:37;;;;;;;2.67;0.80;;;;;;;8.33;88.76;94411.75;4413541;32;20203;-63
2021/12/29 04:19:08;;;;;;;2.27;1.00;;;;;;;8.35;88.73;94420.16;4414535;32;20184;-63
2021/12/29 04:21:37;;;;;;;2.87;0.70;;;;;;;8.36;88.63;94421.72;4410867;32;20291;-63
2021/12/29 04:24:05;;;;;;;2.30;0.57;;;;;;;8.37;88.62;94425.91;4423608;32;20275;-63
2021/12/29 04:26:33;;;;;;;2.47;0.60;;;;;;;8.44;89.14;94432.34;4416772;32;20291;-64
2021/12/29 04:28:58;;;;;;;1.50;0.87;;;;;;;8.34;89.82;94431.78;4408770;32;20306;-63
2021/12/29 04:31:24;;;;;;;2.87;0.70;;;;;;;8.36;89.45;94427.00;4412975;32;20291;-64
2021/12/29 04:33:49;;;;;;;2.73;0.70;;;;;;;8.30;90.07;94436.13;4411650;32;20225;-63
2021/12/29 04:36:15;;;;;;;2.77;0.97;;;;;;;8.27;90.55;94437.50;4412600;32;20188;-63
2021/12/29 04:38:40;;;;;;;1.93;0.70;;;;;;;8.16;90.83;94444.84;4421659;32;20285;-63
2021/12/29 04:41:06;;;;;;;2.87;0.80;;;;;;;8.17;90.61;94461.50;4410135;32;20192;-63
2021/12/29 04:43:31;;;;;;;1.30;0.57;;;;;;;8.13;91.23;94471.88;4415850;32;20259;-64
2021/12/29 04:45:56;;;;;;;3.20;0.70;;;;;;;8.14;91.59;94473.44;4415360;32;20188;-64
2021/12/29 04:48:23;;;;;;;1.47;0.70;;;;;;;8.22;92.28;94475.37;4411391;32;20258;-64
2021/12/29 04:50:51;;;;;;;1.47;0.47;;;;;;;8.07;92.99;94477.59;4422678;32;20188;-63
2021/12/29 04:53:20;;;;;;;2.10;0.73;;;;;;;8.05;93.21;94472.59;4407328;32;20345;-63
2021/12/29 04:55:47;;;;;;;1.87;0.70;;;;;;;8.00;93.50;94474.56;4415466;32;20303;-63
2021/12/29 04:58:13;;;;;;;1.30;0.80;;;;;;;7.99;93.94;94476.41;4408900;32;20280;-63
2021/12/29 05:00:38;;;;;;;3.13;0.73;;;;;;;7.99;93.94;94484.34;4411458;32;20302;-63
2021/12/29 05:03:05;;;;;;;4.43;1.27;;;;;;;7.98;94.47;94488.06;4405717;32;20181;-63
2021/12/29 05:10:41;;;;;;;2.97;0.90;;;;;;;7.91;95.74;94492.94;4416354;32;20248;-63
2021/12/29 05:13:07;;;;;;;1.60;0.80;;;;;;;7.86;95.62;94507.06;4418899;32;20279;-63
2021/12/29 05:15:33;;;;;;;3.33;1.00;;;;;;;7.90;95.96;94507.22;4420648;32;20206;-64
2021/12/29 05:17:59;;;;;;;2.93;0.63;;;;;;;7.89;95.93;94501.19;4415599;32;20176;-64
2021/12/29 05:20:28;;;;;;;2.03;0.87;;;;;;;7.96;95.46;94511.34;4417103;32;20290;-64
2021/12/29 05:22:55;;;;;;;5.47;0.90;;;;;;;7.95;95.54;94515.06;4415764;32;20198;-64
2021/12/29 05:25:20;;;;;;;2.33;0.80;;;;;;;8.01;95.54;94521.81;4406997;32;20332;-65
2021/12/29 05:27:46;;;;;;;4.27;0.80;;;;;;;7.94;95.52;94510.84;4411489;32;20354;-63
2021/12/29 05:30:11;;;;;;;3.23;1.10;;;;;;;7.84;96.45;94524.28;4418424;32;20310;-63
2021/12/29 05:32:37;;;;;;;5.67;0.90;;;;;;;8.01;95.57;94527.09;4420551;32;20192;-63
2021/12/29 05:35:03;;;;;;;2.10;0.60;;;;;;;8.03;95.52;94532.84;4414494;32;20206;-63
2021/12/29 05:37:28;;;;;;;5.23;0.80;;;;;;;7.88;95.66;94531.31;4412766;32;20206;-64
2021/12/29 05:39:54;;;;;;;3.33;0.70;;;;;;;7.91;95.48;94541.25;4419514;32;20279;-63
2021/12/29 05:42:19;;;;;;;4.67;0.60;;;;;;;7.98;95.88;94545.38;4416074;32;20221;-63
2021/12/29 05:44:44;;;;;;;3.83;0.73;;;;;;;8.06;94.97;94550.75;4413011;32;20180;-63
2021/12/29 05:47:10;;;;;;;5.20;1.13;;;;;;;7.94;94.78;94547.81;4410268;32;20348;-63
2021/12/29 05:49:35;;;;;;;2.67;1.10;;;;;;;7.95;95.16;94552.03;4404978;32;20483;-64
2021/12/29 05:52:00;;;;;;;4.53;1.00;;;;;;;8.03;94.83;94553.97;4408599;32;20187;-64
2021/12/29 05:54:27;;;;;;;5.60;0.80;;;;;;;8.07;94.80;94559.47;4414397;32;20199;-64
2021/12/29 05:56:53;;;;;;;1.57;0.90;;;;;;;8.02;95.00;94559.56;4413682;32;20194;-64
2021/12/29 05:59:19;;;;;;;3.87;0.80;;;;;;;8.06;95.30;94561.31;4409534;32;20303;-63
2021/12/29 06:01:44;;;;;;;0.97;0.70;;;;;;;7.96;96.21;94564.16;4409700;32;20280;-64
2021/12/29 06:04:10;;;;;;;2.23;0.90;;;;;;;8.00;95.90;94570.41;4416099;32;21578;-64
2021/12/29 06:06:36;;;;;;;2.20;0.73;;;;;;;7.90;96.07;94570.59;4420125;32;20232;-64
2021/12/29 06:09:02;;;;;;;2.90;0.70;;;;;;;7.87;96.32;94568.56;4418627;32;20353;-63
2021/12/29 06:11:28;;;;;;;3.10;0.97;;;;;;;7.79;96.66;94571.88;4410251;32;20209;-64
2021/12/29 06:13:53;;;;;;;3.23;1.00;;;;;;;7.79;96.54;94574.53;4416881;32;20279;-64
2021/12/29 06:16:18;;;;;;;2.67;0.70;;;;;;;7.80;96.07;94576.09;4415165;32;20180;-64
2021/12/29 06:18:44;;;;;;;4.77;1.30;;;;;;;7.89;95.92;94569.06;4407499;32;20224;-64
2021/12/29 06:21:16;;;;;;;3.40;0.87;;;;;;;7.82;96.11;94566.03;4414171;32;20198;-64
2021/12/29 06:23:42;;;;;;;1.43;0.60;;;;;;;7.85;95.29;94570.72;4410181;32;20298;-64
2021/12/29 06:26:07;;;;;;;1.80;0.70;;;;;;;7.91;94.53;94574.81;4408624;32;20349;-64
2021/12/29 06:28:32;;;;;;;3.13;0.90;;;;;;;7.91;94.84;94585.38;4405706;32;20280;-63
2021/12/29 06:30:58;;;;;;;1.57;0.60;;;;;;;7.88;93.90;94568.28;4412010;32;20188;-63
2021/12/29 06:33:23;;;;;;;1.87;0.80;;;;;;;7.90;93.67;94586.44;4404922;32;20190;-63
2021/12/29 06:35:48;;;;;;;3.13;0.97;;;;;;;7.81;93.90;94589.00;4410957;32;20179;-63
2021/12/29 06:38:14;;;;;;;2.13;0.67;;;;;;;7.71;94.75;94593.69;4409877;32;20176;-63
2021/12/29 06:40:39;;;;;;;1.77;0.73;;;;;;;7.73;94.22;94596.81;4417606;32;20219;-63
2021/12/29 06:43:04;;;;;;;4.87;0.87;;;;;;;7.76;94.21;94604.16;4432492;32;20172;-63
2021/12/29 06:45:30;;;;;;;3.70;0.83;;;;;;;7.69;94.19;94611.69;4407056;32;20221;-63
2021/12/29 06:47:55;;;;;;;1.33;0.60;;;;;;;7.71;94.15;94614.81;4404451;32;20215;-63
2021/12/29 06:50:20;;;;;;;3.17;0.80;;;;;;;7.73;93.78;94610.00;4417445;32;20232;-63
2021/12/29 06:52:46;;;;;;;1.67;0.80;;;;;;;7.72;94.26;94605.81;4406540;32;20206;-63
2021/12/29 06:55:11;;;;;;;5.00;1.50;;;;;;;7.77;94.10;94622.34;4416224;32;20202;-63
2021/12/29 06:57:37;;;;;;;3.83;0.73;;;;;;;7.89;93.69;94627.16;4409140;32;20188;-63
2021/12/29 07:00:05;;;;;;;1.70;0.60;;;;;;;7.79;93.48;94635.25;4409523;32;20206;-63
2021/12/29 07:02:31;;;;;;;2.00;0.60;;;;;;;7.80;93.79;94639.47;4412692;32;20203;-64
2021/12/29 07:04:56;;;;;;;2.07;0.53;;;;;;;7.69;94.23;94646.00;4413647;32;20267;-63
2021/12/29 07:07:21;;;;;;;1.23;0.50;;;;;;;7.66;94.49;94641.31;4414718;32;20184;-64
2021/12/29 07:09:47;;;;;;;3.00;0.73;;;;;;;7.76;94.34;94649.03;4410510;32;20220;-63
2021/12/29 07:12:12;;;;;;;2.07;0.50;;;;;;;7.67;94.57;94646.31;4420076;32;20187;-64
2021/12/29 07:14:39;;;;;;;2.30;0.63;;;;;;;7.65;95.05;94653.72;4419708;32;20207;-63
2021/12/29 07:17:05;;;;;;;1.40;0.70;;;;;;;7.75;94.40;94655.38;4414203;32;20195;-63
2021/12/29 07:19:31;;;;;;;1.23;0.40;;;;;;;7.83;94.18;94660.78;4406029;32;20279;-63
2021/12/29 07:21:59;;;;;;;3.00;0.97;;;;;;;7.80;94.08;94655.31;4408966;32;20267;-63
2021/12/29 07:24:25;;;;;;;2.83;0.60;;;;;;;7.83;93.84;94655.50;4417923;32;20179;-63
2021/12/29 07:26:50;;;;;;;1.93;0.60;;;;;;;7.81;93.83;94656.88;4420757;32;20334;-63
2021/12/29 07:29:16;;;;;;;3.37;0.90;;;;;;;7.81;93.93;94656.88;4410112;32;20192;-63
2021/12/29 07:31:41;;;;;;;1.90;0.60;;;;;;;7.87;93.51;94656.50;4409323;32;20192;-63
2021/12/29 07:34:07;;;;;;;2.30;0.40;;;;;;;7.86;93.59;94664.72;4412176;32;20183;-63
2021/12/29 07:36:33;;;;;;;1.27;0.57;;;;;;;7.96;92.38;94667.16;4408081;32;20192;-63
2021/12/29 07:38:58;;;;;;;3.13;0.67;;;;;;;8.07;92.28;94660.63;4412535;32;20283;-63
2021/12/29 07:41:24;;;;;;;2.33;0.57;;;;;;;8.01;92.29;94667.06;4415553;32;20313;-64
2021/12/29 07:43:51;;;;;;;4.30;0.90;;;;;;;8.13;91.78;94664.69;4423636;32;20184;-63
2021/12/29 07:46:17;;;;;;;3.87;0.87;;;;;;;8.07;91.51;94671.19;4417063;32;20230;-63
2021/12/29 07:48:42;;;;;;;1.27;0.53;;;;;;;7.98;92.08;94674.78;4410986;32;20283;-63
2021/12/29 07:51:09;;;;;;;4.57;0.70;;;;;;;8.11;92.00;94682.69;4410554;32;20349;-63
2021/12/29 07:53:37;;;;;;;0.80;0.70;;;;;;;8.24;90.77;94683.78;4410735;32;20197;-63
2021/12/29 07:56:06;;;;;;;2.80;0.70;;;;;;;8.20;91.02;94690.75;4417470;32;20309;-63
2021/12/29 07:58:34;;;;;;;3.53;0.70;;;;;;;8.19;90.87;94689.16;4407874;32;20310;-63
2021/12/29 08:01:00;;;;;;;1.87;1.00;;;;;;;8.27;90.48;94707.78;4413541;32;20284;-63
2021/12/29 08:03:25;;;;;;;4.00;1.10;;;;;;;8.18;90.72;94706.88;4411240;32;20290;-63
2021/12/29 08:05:50;;;;;;;1.60;0.60;;;;;;;8.19;90.65;94718.22;4412741;32;20287;-63
2021/12/29 08:08:16;;;;;;;1.87;0.60;;;;;;;8.28;90.28;94725.19;4409481;32;20181;-63
2021/12/29 08:10:41;;;;;;;2.60;0.43;;;;;;;8.21;89.96;94719.50;4421476;32;20206;-63
2021/12/29 08:13:08;;;;;;;1.17;0.53;;;;;;;8.28;89.71;94725.19;4411335;32;20180;-63
2021/12/29 08:15:35;;;;;;;1.20;0.60;;;;;;;8.28;90.39;94730.47;4414206;32;20202;-63
2021/12/29 08:18:03;;;;;;;2.63;0.53;;;;;;;8.28;89.81;94746.34;4410757;32;20279;-63
2021/12/29 08:20:29;;;;;;;1.33;0.53;;;;;;;8.30;89.95;94739.97;4417644;32;20299;-63
2021/12/29 08:22:55;;;;;;;1.53;0.60;;;;;;;8.30;89.93;94753.97;4414750;32;20285;-63
2021/12/29 08:25:21;;;;;;;1.00;0.50;;;;;;;8.41;89.71;94751.94;4415017;32;20276;-63
2021/12/29 08:27:46;;;;;;;2.80;0.70;;;;;;;8.42;89.82;94756.94;4416160;32;20233;-63
2021/12/29 08:30:12;;;;;;;2.00;0.83;;;;;;;8.51;89.45;94749.13;4410929;32;20210;-63
2021/12/29 08:32:38;;;;;;;0.90;0.60;;;;;;;8.59;88.73;94749.19;4420758;32;20188;-63
2021/12/29 08:35:04;;;;;;;3.60;1.13;;;;;;;8.57;88.42;94743.41;4409336;32;20251;-63
2021/12/29 08:37:29;;;;;;;3.17;0.90;;;;;;;8.65;88.70;94741.19;4413218;32;20192;-63
2021/12/29 08:39:55;;;;;;;1.53;0.87;;;;;;;8.51;89.10;94744.63;4408877;32;20280;-63
2021/12/29 08:42:22;;;;;;;1.50;0.50;;;;;;;8.52;88.59;94750.69;4420633;32;20188;-65
2021/12/29 08:44:47;;;;;;;2.43;0.80;;;;;;;8.61;88.28;94740.97;4414501;32;20180;-63
2021/12/29 08:47:13;;;;;;;1.63;0.50;;;;;;;8.62;88.31;94750.47;4407590;32;20287;-63
2021/12/29 08:49:38;;;;;;;3.80;0.93;;;;;;;8.75;88.02;94741.75;4406288;32;20206;-63
2021/12/29 08:52:04;;;;;;;4.03;0.90;;;;;;;8.80;87.29;94754.09;4408883;32;20192;-63
2021/12/29 08:54:30;;;;;;;1.40;0.63;;;;;;;8.78;87.29;94759.66;4405681;32;20214;-63
2021/12/29 08:56:55;;;;;;;3.17;1.10;;;;;;;8.76;87.18;94767.09;4406440;32;20358;-63
2021/12/29 08:59:21;;;;;;;1.23;0.43;;;;;;;8.92;86.62;94767.59;4419164;32;20184;-63
2021/12/29 09:01:47;;;;;;;0.87;0.57;;;;;;;8.98;86.23;94770.91;4428133;32;20203;-63
2021/12/29 09:04:12;;;;;;;1.63;0.53;;;;;;;9.03;85.56;94784.03;4418633;32;20188;-63
2021/12/29 09:06:38;;;;;;;0.70;0.40;;;;;;;9.01;85.67;94778.25;4431139;32;20192;-63
2021/12/29 09:09:04;;;;;;;3.03;0.60;;;;;;;9.09;85.87;94781.00;4413862;32;20243;-63
2021/12/29 09:11:30;;;;;;;1.03;0.83;;;;;;;9.09;84.69;94785.50;4408541;32;20188;-63
2021/12/29 09:13:56;;;;;;;2.73;0.80;;;;;;;9.05;84.86;94777.38;4420096;32;20225;-63
2021/12/29 09:16:22;;;;;;;2.60;0.70;;;;;;;9.12;84.99;94782.28;4420686;32;20196;-64
2021/12/29 09:18:47;;;;;;;2.30;0.70;;;;;;;9.13;84.33;94797.06;4411433;32;20316;-63
2021/12/29 09:21:15;;;;;;;0.50;0.50;;;;;;;8.99;84.89;94789.13;4406821;32;20194;-63
2021/12/29 09:23:42;;;;;;;1.60;0.77;;;;;;;9.00;85.10;94800.50;4415586;32;20341;-63
2021/12/29 09:26:10;;;;;;;1.63;0.70;;;;;;;9.10;85.05;94801.09;4405676;32;20348;-63
2021/12/29 09:28:35;;;;;;;0.97;0.70;;;;;;;9.21;84.87;94809.59;4410164;32;20219;-63
2021/12/29 09:31:01;;;;;;;1.27;0.70;;;;;;;9.13;84.34;94812.94;4418088;32;20184;-63
2021/12/29 09:33:26;;;;;;;3.70;0.90;;;;;;;9.18;84.54;94802.22;4408437;32;20265;-63
2021/12/29 09:35:57;;;;;;;3.17;0.70;;;;;;;9.24;83.50;94803.69;4414110;32;20239;-63
2021/12/29 09:38:23;;;;;;;3.13;0.70;;;;;;;9.30;83.67;94807.81;4412968;32;20181;-63
2021/12/29 09:40:49;;;;;;;1.43;1.07;;;;;;;9.28;83.68;94807.31;4406743;32;20299;-63
2021/12/29 09:43:16;;;;;;;3.33;0.60;;;;;;;9.26;84.59;94801.53;4413824;32;20194;-63
2021/12/29 09:45:44;;;;;;;1.73;0.80;;;;;;;9.43;83.17;94809.63;4417871;32;20257;-63
2021/12/29 09:48:10;;;;;;;1.70;0.73;;;;;;;9.39;82.31;94806.00;4413916;32;20199;-63
2021/12/29 09:50:36;;;;;;;3.77;0.87;;;;;;;9.36;83.04;94793.38;4406548;32;20180;-63
2021/12/29 09:53:02;;;;;;;2.80;0.70;;;;;;;9.38;83.30;94801.78;4412203;32;20196;-63
2021/12/29 09:55:28;;;;;;;2.17;0.87;;;;;;;9.45;81.89;94802.19;4404033;32;20210;-63
2021/12/29 09:57:57;;;;;;;2.47;0.77;;;;;;;9.44;82.74;94792.66;4410177;32;20295;-63
2021/12/29 10:00:35;;;;;;;2.73;0.80;;;;;;;9.54;82.02;94800.41;4408788;32;20252;-63
2021/12/29 10:03:04;;;;;;;1.00;0.63;;;;;;;9.60;81.34;94801.84;4419301;32;20187;-63
2021/12/29 10:05:30;;;;;;;2.30;0.80;;;;;;;9.52;80.94;94802.56;4418135;32;20202;-63
2021/12/29 10:08:12;;;;;;;3.23;1.10;;;;;;;9.59;81.21;94808.22;4407383;32;20180;-63
2021/12/29 10:10:41;;;;;;;2.83;0.80;;;;;;;9.63;81.05;94822.41;4406324;32;20176;-63
2021/12/29 10:13:08;;;;;;;4.53;1.30;;;;;;;9.67;80.39;94801.44;4406865;32;20291;-63
2021/12/29 10:15:37;;;;;;;2.83;0.97;;;;;;;9.61;80.99;94802.63;4410799;32;20176;-63
2021/12/29 10:18:08;;;;;;;2.47;0.90;;;;;;;9.73;80.80;94799.44;4413232;32;20228;-63
2021/12/29 10:20:44;;;;;;;4.30;1.00;;;;;;;9.83;79.45;94807.94;4405980;32;20195;-63
2021/12/29 10:23:34;;;;;;;5.00;1.00;;;;;;;9.73;80.03;94802.09;4416278;32;20183;-63
2021/12/29 10:26:07;;;;;;;5.50;1.10;;;;;;;9.71;79.55;94812.22;4404915;32;20253;-63
2021/12/29 10:28:33;;;;;;;3.53;1.10;;;;;;;9.71;79.69;94810.34;4405570;32;20196;-63
2021/12/29 10:31:05;;;;;;;2.97;1.57;;;;;;;9.83;79.48;94826.47;4407796;32;20179;-63
2021/12/29 10:33:34;;;;;;;3.83;0.93;;;;;;;9.84;79.31;94806.84;4415836;32;20266;-63
2021/12/29 10:36:13;;;;;;;2.43;0.80;;;;;;;9.89;79.42;94816.56;4406139;32;20188;-63
2021/12/29 10:38:39;;;;;;;4.03;1.50;;;;;;;9.84;78.77;94822.75;4412007;32;20245;-63
2021/12/29 10:41:06;;;;;;;1.17;0.90;;;;;;;9.76;79.28;94804.16;4416827;32;20200;-63
2021/12/29 10:43:32;;;;;;;5.00;0.83;;;;;;;9.64;79.16;94813.41;4417075;32;20202;-63
2021/12/29 10:45:59;;;;;;;3.40;1.13;;;;;;;9.64;79.75;94821.34;4407360;32;20247;-63
2021/12/29 10:48:29;;;;;;;1.93;0.70;;;;;;;9.71;79.27;94823.59;4416898;32;20214;-63
2021/12/29 10:51:07;;;;;;;2.90;1.10;;;;;;;9.74;79.23;94828.28;4408604;32;20218;-63
2021/12/29 10:53:37;;;;;;;1.87;1.03;;;;;;;9.84;79.27;94814.78;4405781;32;20268;-63
2021/12/29 10:56:17;;;;;;;2.23;0.90;;;;;;;9.89;79.05;94827.16;4406324;32;20195;-63
2021/12/29 10:58:42;;;;;;;2.03;0.80;;;;;;;9.85;78.22;94812.94;4405510;32;20230;-63
2021/12/29 11:01:11;;;;;;;3.57;1.77;;;;;;;9.89;78.03;94814.69;4419340;32;20179;-63
2021/12/29 11:03:47;;;;;;;4.40;1.00;;;;;;;9.85;78.48;94828.81;4419744;32;20187;-63
2021/12/29 11:06:16;;;;;;;4.37;1.00;;;;;;;9.85;78.17;94819.00;4406865;32;20184;-63
2021/12/29 11:08:52;;;;;;;2.93;0.73;;;;;;;9.72;79.04;94819.84;4412983;32;20401;-63
2021/12/29 11:11:35;;;;;;;2.87;1.00;;;;;;;9.76;78.43;94825.34;4417554;32;20176;-63
2021/12/29 11:14:14;;;;;;;2.27;1.40;;;;;;;9.79;77.41;94824.72;4419898;32;20187;-63
2021/12/29 11:16:41;;;;;;;2.03;0.80;;;;;;;9.75;77.70;94845.75;4419849;32;20230;-63
2021/12/29 11:19:07;;;;;;;3.03;0.90;;;;;;;9.79;77.56;94832.66;4414550;32;20230;-63
2021/12/29 11:21:36;;;;;;;2.50;0.77;;;;;;;9.78;77.54;94839.03;4410231;32;20184;-63
2021/12/29 11:24:23;;;;;;;3.20;1.53;;;;;;;9.83;77.72;94842.38;4414723;32;20180;-63
2021/12/29 11:26:50;;;;;;;4.63;0.87;;;;;;;9.80;77.12;94842.19;4410111;32;20184;-63
2021/12/29 11:29:17;;;;;;;3.70;1.37;;;;;;;9.76;78.16;94838.59;4420087;32;20193;-63
2021/12/29 11:31:46;;;;;;;2.63;1.20;;;;;;;9.86;77.79;94836.47;4422216;32;20206;-63
2021/12/29 11:34:25;;;;;;;3.67;1.50;;;;;;;9.88;78.35;94839.59;4412847;32;20293;-62
2021/12/29 11:37:04;;;;;;;3.37;1.30;;;;;;;9.87;78.02;94839.91;4409580;32;20245;-63
2021/12/29 11:39:32;;;;;;;5.30;1.00;;;;;;;9.88;78.83;94844.12;4409622;32;20187;-63
2021/12/29 11:41:57;;;;;;;4.30;1.00;;;;;;;9.84;78.86;94836.00;4414843;32;20223;-63
2021/12/29 11:44:23;;;;;;;2.30;0.80;;;;;;;9.83;79.85;94846.88;4415426;32;20228;-63
2021/12/29 11:46:48;;;;;;;6.30;1.63;;;;;;;9.79;79.65;94848.56;4429353;32;20247;-63